Tiempo atmosférico en la estación meteorológica de Llerena, Badajoz (655 m.)



Fecha
DESCASC
Temp. máxima en grados centígrados (hora)
DESCASC
Temp. mínima en grados centígrados (hora)
DESCASC
Temp. media en grados centígrados
DESCASC
Racha de viento máxima en m/sg (hora)
DESCASC
Velocidad máxima media en intervalos de 10 minutos(hora)
DESCASC
Precipitaciones diarias en mm
DESCASC
Precipitaciones de 00:00 a 06:00 en mm
DESCASC
Precipitaciones de 06:00 a 12:00 en mm
DESCASC
Precipitaciones de 12:00 a 18:00 en mm
DESCASC
Precipitaciones de 18:00 a 24:00 en mm
DESCASC
27-01-2020 12.1 (16:30) 5.6 (00:00) 8.9 9.17 (15:00) 6.67 (10:30) 0 0 0 0 0
26-01-2020 12.2 (16:20) 3.2 (08:40) 7.7 6.11 (14:10) 3.89 (14:10) 0.2 0 0.2 0 0
25-01-2020 10.8 (16:30) 6.7 (00:00) 8.8 11.67 (00:50) 7.78 (06:50) 0.6 0 0 0.2 0.4
24-01-2020 10.4 (14:10) 6.5 (00:00) 8.4 13.61 (23:20) 8.61 (20:30) 11 0 0 1.2 9.8
23-01-2020 7.6 (12:50) 6.2 (00:00) 6.9 14.72 (11:40) 9.17 (11:40) 13.2 0.8 1.6 8.4 2.4
22-01-2020 8.3 (16:10) 3.8 (00:00) 6.1 12.5 (20:40) 8.61 (20:40) 5 0.8 3.4 0.2 0.6
21-01-2020 7.5 (15:40) 2.4 (00:00) 5 12.22 (13:50) 7.5 (00:20) 0.2 0 0 0 0.2
20-01-2020 5.8 (16:10) 2.1 (00:00) 4 15.83 (17:30) 11.67 (17:40) 0 0 0 0 0
19-01-2020 10.5 (15:00) 4.2 (00:00) 7.3 12.22 (17:30) 7.78 (06:10) 0 0 0 0 0
18-01-2020 12.1 (16:30) 8.7 (00:00) 10.4 15.28 (22:50) 10.83 (10:30) 9 0 5.4 3.6 0
17-01-2020 14.4 (14:00) 8 (00:00) 11.2 11.11 (01:00) 7.78 (01:00) 0.4 0.4 0 0 0
16-01-2020 14.6 (15:20) 8 (00:00) 11.3 10.56 (00:10) 7.78 (00:10) 0 0 0 0 0
15-01-2020 10.5 (19:30) 6.9 (00:00) 8.7 16.11 (08:10) 12.5 (08:00) 0.4 0 0 0.4 0
14-01-2020 11.7 (13:20) 3.1 (00:00) 7.4 12.22 (22:00) 9.17 (22:00) 0 0 0 0 0
13-01-2020 13.2 (16:00) 3.2 (00:00) 8.2 6.39 (11:50) 4.72 (12:30) 0 0 0 0 0
12-01-2020 13.1 (15:20) 3.1 (00:00) 8.1 5 (15:30) 3.06 (02:20) 0 0 0 0 0
11-01-2020 11.8 (15:50) 1.8 (00:00) 6.8 6.94 (10:40) 5 (10:30) 0 0 0 0 0
10-01-2020 11.4 (17:00) 2.5 (00:00) 6.9 8.61 (15:40) 5.83 (15:30) 0 0 0 0 0
09-01-2020 13.4 (15:30) 4.5 (00:00) 8.9 8.61 (06:30) 6.39 (06:30) 0 0 0 0 0
08-01-2020 18.2 (15:20) 4.8 (00:00) 11.5 3.06 (23:40) 2.78 (08:50) 0 0 0 0 0
07-01-2020 15.2 (16:20) 5.4 (00:00) 10.3 5.28 (06:20) 4.17 (05:10) 0 0 0 0 0
06-01-2020 14.5 (15:10) 3.8 (00:00) 9.1 3.89 (02:10) 3.33 (03:30) 0 0 0 0 0
05-01-2020 12.5 (16:50) 2.4 (00:00) 7.5 4.72 (14:30) 3.06 (16:30) 0 0 0 0 0
04-01-2020 10.8 (15:40) 2.2 (00:00) 6.5 8.61 (16:10) 6.11 (17:20) 0.2 0 0.2 0 0
03-01-2020 10.7 (16:30) 5.1 (00:00) 7.9 5.83 (14:20) 3.61 (13:20) 0 0 0 0 0
02-01-2020 15 (16:10) 6.3 (00:00) 10.7 5.28 (12:10) 3.61 (12:10) 0 0 0 0 0
01-01-2020 17.5 (15:10) 6.2 (00:00) 11.8 3.06 (15:20) 2.5 (23:20) 0 0 0 0 0
31-12-2019 15.2 (15:30) 6.3 (00:00) 10.8 5.56 (12:40) 4.17 (12:40) 0 0 0 0 0
30-12-2019 17 (16:10) 5.9 (00:00) 11.5 4.44 (04:30) 3.89 (04:20) 0 0 0 0 0

Gráficas

Temp. máximas Temp. mínimas Temp. medias Precipitaciones Rachas de viento máximas Velocidades máximas media en intervalos de 10 minutos

Datos horarios

Fecha y hora oficial Temperatura (ºC) Velocidad del viento (km/h) Dirección del viento Racha (km/h) Dirección de racha Precipitación (mm) Presión (hPa) Tendencia (hPa) Humedad (%)
2020-01-28 23:00:00 10.3 12 Sudoeste 17 Sudoeste 0 949.6 0 90
2020-01-28 22:00:00 10.8 9 Sudoeste 17 Sudoeste 0 949.7 0.7 89
2020-01-28 21:00:00 11.2 9 Sudoeste 17 Sudoeste 0 949.8 0.8 88
2020-01-28 20:00:00 11.2 10 Sudoeste 17 Sudoeste 0 949.6 0.8 90
2020-01-28 19:00:00 11.2 14 Sudoeste 22 Sudoeste 0 949 0.1 89
2020-01-28 18:00:00 11.7 15 Oeste 23 Oeste 0 949 0 87
2020-01-28 17:00:00 12.3 17 Oeste 26 Oeste 0 948.8 -0.9 84
2020-01-28 16:00:00 12.5 18 Oeste 26 Oeste 0 948.9 -1.3 82
2020-01-28 15:00:00 12.9 16 Oeste 28 Oeste 0 949 -1.2 81
2020-01-28 14:00:00 13 9 Oeste 26 Sudoeste 0 949.7 -0.1 81
2020-01-28 13:00:00 12.6 15 Sudoeste 32 Oeste 0 950.2 1 83
2020-01-28 12:00:00 12 19 Sudoeste 31 Sudoeste 0 950.2 1.6 87
2020-01-28 11:00:00 11 23 Sudoeste 33 Sudoeste 0 949.8 1.3 89
2020-01-28 10:00:00 9.8 23 Sudoeste 32 Sudoeste 0 949.2 0.9 94
2020-01-28 09:00:00 9.1 26 Sudoeste 33 Sudoeste 0 948.6 0.4 94
2020-01-28 08:00:00 9 23 Sudoeste 33 Sudoeste 0 948.5 0.2 93
2020-01-28 07:00:00 9 24 Sudoeste 31 Sudoeste 0 948.3 -0.4 94
2020-01-28 06:00:00 9.1 17 Sudoeste 28 Sur 0 948.2 -0.6 93
2020-01-28 05:00:00 9.3 15 Sudoeste 27 Sudoeste 0 948.3 -0.6 91
2020-01-28 04:00:00 9.3 14 Sudoeste 28 Sudoeste 0 948.7 -0.6 92
2020-01-28 03:00:00 9.1 19 Sudoeste 32 Sudoeste 0 948.8 -0.6 94
2020-01-28 02:00:00 8.8 21 Sudoeste 34 Sudoeste 0 948.9 -0.6 95
2020-01-28 01:00:00 9 23 Sudoeste 32 Sudoeste 0 949.3 -0.2 94
2020-01-28 00:00:00 9 24 Sur 30 Sur 0 949.4 0.4 94
2020-01-27 23:00:00 8.9 17 Sur 27 Sur 0 949.5 0.9 93
2020-01-27 22:00:00 9 16 Sudoeste 32 Sudoeste 0 949.5 1.2 91
2020-01-27 21:00:00 8.8 23 Sudoeste 29 Sudoeste 0 949 0.8 91
2020-01-27 20:00:00 9.2 18 Sur 24 Sur 0 948.6 0.6 88
2020-01-27 19:00:00 10.2 11 Sur 19 Sudoeste 0 948.3 0.3 83
2020-01-27 18:00:00 11.3 15 Sudoeste 26 Oeste 0 948.2 -0.1 75
2020-01-27 17:00:00 11.2 14 Sudoeste 27 Oeste 0 948 -0.8 79
2020-01-27 16:00:00 11.4 19 Sudoeste 32 Oeste 0 948 -1.7 72
2020-01-27 15:00:00 11.7 18 Sudoeste 33 Oeste 0 948.3 -1.8 75
2020-01-27 14:00:00 11.4 18 Sudoeste 28 Sudoeste 0 948.8 -1.1 80
2020-01-27 13:00:00 10.2 17 Sur 28 Sudoeste 0 949.7 0.2 86
2020-01-27 12:00:00 8.8 18 Sudoeste 30 Sudoeste 0 950.1 1 87
2020-01-27 11:00:00 7.5 21 Sudoeste 33 Sudoeste 0 949.9 1 93
2020-01-27 10:00:00 7.6 21 Sudoeste 28 Sudoeste 0 949.5 0.7 88
2020-01-27 09:00:00 6.7 15 Sur 25 Sudoeste 0 949.1 0.4 91
2020-01-27 08:00:00 7.2 17 Sur 23 Sur 0 948.9 0.4 87
2020-01-27 07:00:00 7.2 12 Sudoeste 19 Sudoeste 0 948.8 -0.2 85
2020-01-27 06:00:00 7.2 12 Sudoeste 18 Sur 0 948.7 -0.6 83
2020-01-27 05:00:00 6.9 15 Sur 19 Sur 0 948.5 -1.1 80
2020-01-27 04:00:00 6.4 14 Sudoeste 21 Sur 0 949 -0.9 83
2020-01-27 03:00:00 6.9 18 Sur 21 Sur 0 949.3 -0.7 80
2020-01-27 02:00:00 6.1 12 Sur 15 Sudoeste 0 949.6 -0.4 83
2020-01-27 01:00:00 6.2 10 Sudoeste 12 Sudoeste 0 949.9 -0.2 84
2020-01-27 00:00:00 5.6 10 Sudoeste 13 Sudoeste 0 950 0.2 87
2020-01-26 23:00:00 6.1 6 Sudoeste 7 Sudoeste 0 950 0.6 82
2020-01-26 22:00:00 6.7 6 Sudoeste 9 Oeste 0 950.1 1.1 79
2020-01-26 21:00:00 7.1 6 Oeste 11 Oeste 0 949.8 1.3 78
2020-01-26 20:00:00 7.4 6 Sudoeste 8 Oeste 0 949.4 1.1 78
2020-01-26 19:00:00 8.7 8 Oeste 15 Noroeste 0 949 0.9 75
2020-01-26 18:00:00 10.2 10 Noroeste 16 Noroeste 0 948.5 0.2 66
2020-01-26 17:00:00 10.3 8 Norte 22 Noroeste 0 948.3 -0.5 63
2020-01-26 16:00:00 11.3 9 Oeste 19 Noroeste 0 948.1 -1.3 59
2020-01-26 15:00:00 10.8 13 Noroeste 22 Noroeste 0 948.3 -1.1 67
2020-01-26 14:00:00 10.6 10 Oeste 20 Oeste 0 948.8 0.2 66
2020-01-26 13:00:00 10.2 10 Noroeste 18 Noroeste 0 949.4 1.5 72
2020-01-26 12:00:00 8.6 9 Oeste 17 Noroeste 0 949.4 2.3 83
2020-01-26 11:00:00 6.4 7 Oeste 15 Oeste 0 948.6 2.2 90
2020-01-26 10:00:00 4.8 10 Oeste 13 Oeste 0 947.9 2.1 95
2020-01-26 09:00:00 3.5 8 Oeste 15 Oeste 0.2 947.1 1.9 96
2020-01-26 08:00:00 3.7 9 Oeste 11 Sudoeste 0 946.4 1.4 95
2020-01-26 07:00:00 5 9 Sudoeste 20 Sudoeste 0 945.8 1 96
2020-01-26 06:00:00 5 13 Oeste 18 Oeste 0 945.2 0.7 96
2020-01-26 05:00:00 5.2 12 Sudoeste 17 Sudoeste 0 945 0.7 95
2020-01-26 04:00:00 5.5 12 Sudoeste 19 Sudoeste 0 944.8 0.7 95
2020-01-26 03:00:00 5.8 12 Oeste 18 Oeste 0 944.5 0.9 95
2020-01-26 02:00:00 6 12 Oeste 17 Oeste 0 944.3 1 95
2020-01-26 01:00:00 6 10 Oeste 14 Oeste 0 944.1 1.2 94
2020-01-26 00:00:00 6.7 10 Oeste 14 Oeste 0.2 943.6 1.4 93
2020-01-25 23:00:00 7.3 6 Oeste 9 Oeste 0 943.3 1.8 93
2020-01-25 22:00:00 7.3 4 Oeste 8 Oeste 0 942.9 2 93
2020-01-25 21:00:00 7.7 3 Oeste 10 Oeste 0 942.2 2.2 91
2020-01-25 20:00:00 7.9 6 Oeste 10 Oeste 0 941.5 2 90
2020-01-25 19:00:00 8.2 8 Noroeste 19 Noroeste 0.2 940.9 1.6 90
2020-01-25 18:00:00 9.3 8 Sudoeste 17 Sudoeste 0 940 0.9 85
2020-01-25 17:00:00 9.9 13 Sudoeste 18 Sudoeste 0.2 939.5 0 79
2020-01-25 16:00:00 10.4 12 Sudoeste 18 Sudoeste 0 939.3 -0.7 78
2020-01-25 15:00:00 9.7 13 Sudoeste 22 Sur 0 939.1 -1.3 81
2020-01-25 14:00:00 9.3 16 Sur 26 Sur 0 939.5 -0.5 85
2020-01-25 13:00:00 8.5 18 Sur 31 Sur 0 940 0.4 88
2020-01-25 12:00:00 7.6 22 Sur 30 Sur 0 940.4 1.2 89
2020-01-25 11:00:00 7.9 21 Sur 28 Sur 0 940 1.2 87
2020-01-25 10:00:00 7.4 12 Sur 26 Sur 0 939.6 1 89
2020-01-25 09:00:00 7.1 21 Sur 31 Sur 0 939.2 0.3 90
2020-01-25 08:00:00 6.8 23 Sur 42 Sur 0 938.8 -0.4 90
2020-01-25 07:00:00 7.4 28 Sur 38 Sur 0 938.6 -0.7 90
2020-01-25 06:00:00 7.9 14 Sur 24 Sur 0 938.9 -0.5 92
2020-01-25 05:00:00 7.7 13 Sur 26 Sur 0 939.2 -0.4 91
2020-01-25 04:00:00 7.6 15 Sur 31 Sur 0 939.3 -0.4 91
2020-01-25 03:00:00 7.6 20 Sur 41 Sur 0 939.4 -0.4 91
2020-01-25 02:00:00 7.6 18 Sur 37 Sur 0 939.6 0.2 91
2020-01-25 01:00:00 7.5 23 Sur 42 Sur 0 939.7 0.1 91
2020-01-25 00:00:00 7.6 26 Sur 49 Sudeste 0 939.8 0 92
2020-01-24 23:00:00 7.7 20 Sudeste 40 Sur 0.8 939.4 -0.9 93
2020-01-24 22:00:00 6.6 17 Sudeste 30 Sudeste 0.6 939.6 -0.6 94
2020-01-24 21:00:00 6.7 22 Sudeste 44 Sudeste 3.2 939.8 -0.5 90
2020-01-24 20:00:00 7.3 27 Sudeste 45 Sudeste 2.6 940.3 -0.2 90
2020-01-24 19:00:00 7.7 19 Sudeste 39 Sudeste 2.6 940.2 -0.7 90
2020-01-24 18:00:00 8.4 19 Sudeste 28 Sudeste 1 940.3 -1.1 93
2020-01-24 17:00:00 8.8 20 Sudeste 29 Sudeste 0 940.5 -1.4 89
2020-01-24 16:00:00 9.5 18 Sudeste 24 Sudeste 0.2 940.9 -1.8 84
2020-01-24 15:00:00 10.1 15 Sudeste 35 Sudeste 0 941.4 -2.1 82
2020-01-24 14:00:00 10.2 18 Sudeste 37 Sudeste 0 941.9 -1.1 84
2020-01-24 13:00:00 9.3 21 Sudeste 32 Sudeste 0 942.7 0.3 86
2020-01-24 12:00:00 8.5 17 Sudeste 36 Sur 0 943.5 1.2 87
2020-01-24 11:00:00 8.2 26 Sur 39 Sur 0 943 0.9 88
2020-01-24 10:00:00 7.6 24 Sur 32 Sur 0 942.4 0.5 92
2020-01-24 09:00:00 7.1 17 Sudeste 25 Sur 0 942.3 0.5 94
2020-01-24 08:00:00 6.8 12 Sudeste 28 Sudeste 0 942.1 0.4 94
2020-01-24 07:00:00 6.6 20 Sur 27 Sudeste 0 941.9 0.1 93
2020-01-24 06:00:00 6.9 14 Sudeste 27 Sur 0 941.8 0.1 93
2020-01-24 05:00:00 6.9 16 Sur 27 Sur 0 941.7 -0.1 93
2020-01-24 04:00:00 7 18 Sur 28 Sudeste 0 941.8 0.1 94
2020-01-24 03:00:00 6.9 17 Sudeste 30 Sur 0 941.7 0.2 94
2020-01-24 02:00:00 6.9 14 Sudeste 31 Sur 0 941.8 0.4 93
2020-01-24 01:00:00 6.9 22 Sudeste 32 Sudeste 0 941.7 0.5 91
2020-01-24 00:00:00 7 14 Sudeste 32 Sur 0.2 941.5 0.8 92
2020-01-23 23:00:00 7.1 24 Sur 38 Sudeste 0.4 941.4 1.2 91
2020-01-23 22:00:00 7.2 18 Sur 35 Sudeste 0 941.2 1.4 92
2020-01-23 21:00:00 7.2 21 Sur 41 Sur 0 940.7 1.1 92
2020-01-23 20:00:00 7.2 25 Sudeste 38 Sudeste 0.4 940.2 0.9 92
2020-01-23 19:00:00 7.2 16 Sudeste 27 Sudeste 1.4 939.8 0.7 92
2020-01-23 18:00:00 7.2 20 Sur 42 Sur 0.8 939.6 0.5 89
2020-01-23 17:00:00 7.1 21 Sur 43 Sudoeste 0.2 939.3 -0.2 88
2020-01-23 16:00:00 6.8 19 Sur 35 Sur 2.8 939.1 -0.6 89
2020-01-23 15:00:00 7.6 18 Sur 38 Sudeste 2.6 939.1 -0.8 91
2020-01-23 14:00:00 7.2 22 Sur 47 Sur 1.6 939.5 -0.2 90
2020-01-23 13:00:00 7.4 25 Sudeste 49 Sudeste 0.4 939.7 0.3 91
2020-01-23 12:00:00 7.3 27 Sur 53 Sudeste 0.2 939.9 0.8 88
2020-01-23 11:00:00 7 29 Sudeste 45 Sudeste 0.4 939.7 1.1 90
2020-01-23 10:00:00 6.6 25 Sudeste 39 Sudeste 0.2 939.4 1.1 92
2020-01-23 09:00:00 6.6 20 Sudeste 36 Sudeste 0.6 939.1 0.8 91
2020-01-23 08:00:00 6.6 15 Sudeste 28 Sudeste 0 938.6 0.3 92
2020-01-23 07:00:00 6.6 17 Sur 39 Sur 0.2 938.3 -0.4 91
2020-01-23 06:00:00 6.6 21 Sur 34 Sudeste 0 938.3 -0.5 91
2020-01-23 05:00:00 6.6 19 Sur 33 Sudeste 0 938.3 -0.4 91
2020-01-23 04:00:00 6.5 15 Sudeste 33 Sudeste 0.4 938.7 -0.4 91
2020-01-23 03:00:00 6.4 14 Sudeste 45 Sudeste 0 938.8 -0.4 91
2020-01-23 02:00:00 6.3 28 Sudeste 41 Sudeste 0.2 938.7 -0.2 91
2020-01-23 01:00:00 6.3 23 Sudeste 33 Sudeste 0.2 939.1 0 91
2020-01-23 00:00:00 6.2 25 Sudeste 45 Sudeste 0.4 939.2 0.1 90
2020-01-22 23:00:00 6.1 25 Sur 37 Sur 0 938.9 0.3 87
2020-01-22 22:00:00 6.1 23 Sudeste 36 Sur 0.2 939.1 0.8 90
2020-01-22 21:00:00 6.8 27 Sudeste 45 Sudeste 0 939.1 0.9 87
2020-01-22 20:00:00 6.9 17 Sudeste 22 Sudeste 0 938.6 0.5 88
2020-01-22 19:00:00 6.9 7 Este 13 Este 0 938.3 0.5 88
2020-01-22 18:00:00 7.4 7 Este 16 Sudeste 0 938.2 0 86
2020-01-22 17:00:00 7.6 12 Sudeste 28 Sudeste 0 938.1 -0.5 84
2020-01-22 16:00:00 8.2 18 Sudeste 25 Este 0 937.8 -1.5 82
2020-01-22 15:00:00 7.8 15 Sudeste 32 Sudeste 0 938.2 -1.3 86
2020-01-22 14:00:00 7 21 Sudeste 27 Sudeste 0 938.6 -0.6 88
2020-01-22 13:00:00 6.1 13 Sudeste 29 Sudeste 0.2 939.3 0.7 91
2020-01-22 12:00:00 5.5 20 Sudeste 30 Sudeste 0.2 939.5 1.3 92
2020-01-22 11:00:00 4.9 17 Sudeste 25 Sudeste 0 939.2 1.4 93
2020-01-22 10:00:00 4.6 19 Sudeste 28 Sudeste 0.4 938.6 1.1 94
2020-01-22 09:00:00 4.4 12 Sudeste 17 Sudeste 0.8 938.2 0.9 95
2020-01-22 08:00:00 4.2 7 Este 16 Este 1 937.8 0.2 95
2020-01-22 07:00:00 4.1 13 Este 22 Este 1 937.5 -0.4 95
2020-01-22 06:00:00 4 13 Este 19 Este 0.6 937.3 -0.5 95
2020-01-22 05:00:00 3.8 13 Este 20 Este 0.2 937.6 -0.4 94
2020-01-22 04:00:00 4.1 10 Este 17 Este 0 937.9 -0.3 92
2020-01-22 03:00:00 4.1 13 Este 19 Este 0 937.8 -0.3 91
2020-01-22 02:00:00 4.1 10 Este 15 Este 0 938 0.3 91
2020-01-22 01:00:00 4.5 10 Este 17 Este 0 938.2 1 88
2020-01-22 00:00:00 4.8 13 Este 28 Nordeste 0 938.1 0.9 88
2020-01-21 23:00:00 5.2 19 Este 31 Nordeste 0 937.7 0 87
2020-01-21 22:00:00 5.6 21 Nordeste 31 Este 0 937.2 -0.2 83
2020-01-21 21:00:00 5.1 12 Nordeste 20 Nordeste 0 937.2 0.2 89
2020-01-21 20:00:00 5.2 13 Nordeste 22 Este 0.2 937.7 0.8 88
2020-01-21 19:00:00 6 12 Nordeste 20 Nordeste 0 937.4 1 79
2020-01-21 18:00:00 6.5 10 Nordeste 28 Nordeste 0 937 0.2 73
2020-01-21 17:00:00 7 13 Nordeste 33 Este 0 936.9 -0.8 70
2020-01-21 16:00:00 7.3 20 Nordeste -- -- 0 936.4 -2.1 67
2020-01-21 15:00:00 7.1 23 Nordeste 40 Nordeste -- 936.8 -2.2 66
2020-01-21 14:00:00 7.1 20 Nordeste 44 Nordeste -- 937.7 -1.8 66
2020-01-21 13:00:00 6.7 16 Nordeste 33 Nordeste 0 938.5 -0.9 67
2020-01-21 12:00:00 5.9 8 Nordeste 29 Nordeste 0 939 -0.2 68
2020-01-21 11:00:00 5.4 12 Nordeste 26 Nordeste 0 939.5 0.3 70
2020-01-21 10:00:00 3.9 10 Nordeste 21 Nordeste 0 939.4 0.4 75
2020-01-21 09:00:00 2.6 11 Este 30 Este 0 939.2 -0.3 80
2020-01-21 08:00:00 3.7 19 Este 32 Nordeste 0 939.2 -0.3 75
2020-01-21 07:00:00 3.7 17 Este 32 Este 0 939 -1.2 73
2020-01-21 06:00:00 3.9 20 Nordeste 36 Nordeste 0 939.5 -0.8 71
2020-01-21 05:00:00 3.8 18 Este 31 Nordeste 0 939.5 -1.1 73
2020-01-21 04:00:00 4 21 Nordeste 33 Este 0 940.2 -0.8 73
2020-01-21 03:00:00 3.5 15 Este 33 Este 0 940.3 -0.9 77
2020-01-21 02:00:00 3.9 23 Este 42 Nordeste 0 940.6 -0.1 75
2020-01-21 01:00:00 4.3 24 Este 40 Este 0 941 0.2 73
2020-01-21 00:00:00 4.3 22 Este 37 Este 0 941.2 0.3 73
2020-01-20 23:00:00 4.2 27 Este 47 Nordeste 0 940.7 0 74
2020-01-20 22:00:00 4.5 27 Este 47 Este 0 940.8 0.3 73
2020-01-20 21:00:00 4.3 26 Nordeste 42 Nordeste 0 940.9 1.2 74
2020-01-20 20:00:00 4.6 33 Nordeste 51 Este 0 940.7 1.6 70
2020-01-20 19:00:00 4.6 26 Este 50 Nordeste 0 940.5 1 67
2020-01-20 18:00:00 5.2 34 Nordeste 57 Nordeste 0 939.7 -0.4 62
2020-01-20 17:00:00 5.7 38 Nordeste 55 Nordeste 0 939.1 -1.8 59
2020-01-20 16:00:00 5.7 33 Nordeste 56 Este 0 939.5 -2.2 59
2020-01-20 15:00:00 4.5 32 Nordeste 55 Nordeste 0 940.1 -2 63
2020-01-20 14:00:00 4.4 34 Nordeste 50 Nordeste 0 940.9 -1.1 63
2020-01-20 13:00:00 4.4 27 Nordeste 49 Nordeste 0 941.7 0 59
2020-01-20 12:00:00 4.9 24 Nordeste 46 Nordeste 0 942.1 1.1 56
2020-01-20 11:00:00 4.2 23 Nordeste 42 Este 0 942 0.6 54
2020-01-20 10:00:00 3 12 Nordeste 46 Nordeste 0 941.7 -0.1 54
2020-01-20 09:00:00 2.7 25 Nordeste 47 Nordeste 0 941 -1.2 54
2020-01-20 08:00:00 2.1 16 Este 32 Nordeste 0 941.4 -1.1 53
2020-01-20 07:00:00 2.7 10 Nordeste 28 Nordeste 0 941.8 -1 51
2020-01-20 06:00:00 3.4 18 Nordeste 35 Nordeste 0 942.2 -0.8 51
2020-01-20 05:00:00 3.3 11 Nordeste 34 Nordeste 0 942.5 -1.4 56
2020-01-20 04:00:00 3.6 17 Nordeste 41 Nordeste 0 942.8 -1.4 52
2020-01-20 03:00:00 3.8 23 Nordeste 38 Nordeste 0 943 -1.1 49
2020-01-20 02:00:00 4.2 19 Nordeste 36 Nordeste 0 943.9 -0.1 47
2020-01-20 01:00:00 4.6 14 Nordeste 40 Nordeste 0 944.2 0.4 51
2020-01-20 00:00:00 5.3 18 Nordeste 35 Nordeste 0 944.1 0.6 48
2020-01-19 23:00:00 4.2 11 Este 28 Este 0 944 0.6 77
2020-01-19 22:00:00 5 18 Nordeste 32 Nordeste 0 943.8 0.5 72
2020-01-19 21:00:00 5.6 14 Nordeste 32 Nordeste 0 943.5 0.6 62
2020-01-19 20:00:00 7.4 17 Nordeste 36 Norte 0 943.4 0.2 50
2020-01-19 19:00:00 8.1 16 Nordeste 38 Nordeste 0 943.3 -0.1 53
2020-01-19 18:00:00 8.5 18 Nordeste 44 Nordeste 0 942.9 -0.4 53
2020-01-19 17:00:00 9.3 19 Nordeste 41 Nordeste 0 943.2 -0.6 57
2020-01-19 16:00:00 9.8 17 Nordeste 42 Norte 0 943.4 -1.2 64
2020-01-19 15:00:00 10.3 18 Norte 37 Norte 0 943.3 -1.9 59
2020-01-19 14:00:00 9.5 19 Norte 37 Norte 0 943.8 -1.5 71
2020-01-19 13:00:00 8.7 23 Norte 34 Norte 0 944.6 -0.5 75
2020-01-19 12:00:00 7.7 21 Norte 33 Noroeste 0 945.2 0.4 83
2020-01-19 11:00:00 6.4 18 Norte 37 Norte 0 945.3 0.8 92
2020-01-19 10:00:00 6.1 20 Norte 36 Norte 0 945.1 0.7 93
2020-01-19 09:00:00 6.2 21 Norte 36 Noroeste 0 944.8 0.4 94
2020-01-19 08:00:00 6.3 22 Noroeste 35 Noroeste 0 944.5 -0.6 94
2020-01-19 07:00:00 6.4 21 Noroeste 42 Noroeste 0 944.4 -1.3 94
2020-01-19 06:00:00 6.2 26 Noroeste 40 Noroeste 0 944.4 -1.9 93
2020-01-19 05:00:00 5.8 23 Noroeste 42 Noroeste 0 945.1 -1.6 92
2020-01-19 04:00:00 6.1 25 Noroeste 38 Noroeste 0 945.7 -1.3 90
2020-01-19 03:00:00 6.7 26 Noroeste 42 Noroeste 0 946.3 -1.6 86
2020-01-19 02:00:00 7.9 22 Noroeste 36 Noroeste 0 946.7 -1.6 89
2020-01-19 01:00:00 7.9 23 Oeste 42 Oeste 0 947 -1.3 84
2020-01-19 00:00:00 8.7 19 Oeste 48 Noroeste 0 947.9 0.2 85
2020-01-18 23:00:00 9.8 31 Noroeste 55 Oeste 0 948.3 0.1 84
2020-01-18 22:00:00 10.6 28 Oeste 44 Oeste 0 948.3 -0.2 92
2020-01-18 21:00:00 10.8 27 Sudoeste 42 Sudoeste 0 947.7 -1.4 91
2020-01-18 20:00:00 11.2 23 Sudoeste 33 Sudoeste 0 948.2 -1.2 92
2020-01-18 19:00:00 11.6 18 Sudoeste 30 Sudoeste 0 948.5 -1.2 94
2020-01-18 18:00:00 11.9 15 Sudoeste 27 Sudoeste 0.2 949.1 -0.9 95
2020-01-18 17:00:00 11.7 19 Sudoeste 34 Sur 0.2 949.4 -1.2 93
2020-01-18 16:00:00 11.8 21 Sudoeste 36 Sudoeste 0.8 949.7 -1.9 93
2020-01-18 15:00:00 11.5 25 Sur 42 Sudoeste 0.4 950 -2.3 92
2020-01-18 14:00:00 11.3 28 Sudoeste 46 Sur 0.6 950.6 -1.6 92
2020-01-18 13:00:00 10.8 34 Sur 48 Sur 1.4 951.6 -0.8 92
2020-01-18 12:00:00 10.4 32 Sur 48 Sur 1.2 952.3 0.3 93
2020-01-18 11:00:00 9.7 35 Sur 50 Sur 0 952.2 -0.5 93
2020-01-18 10:00:00 9.3 31 Sur 52 Sur 0.6 952.4 -0.4 92
2020-01-18 09:00:00 9.5 35 Sur 52 Sur 1.6 952 -0.8 90
2020-01-18 08:00:00 8.9 26 Sur 35 Sur 1.6 952.7 0.4 84
2020-01-18 07:00:00 9.5 17 Sur 30 Sur 0.4 952.8 -0.6 74
2020-01-18 06:00:00 10.6 21 Sur 34 Sur 0 952.8 -1.2 73
2020-01-18 05:00:00 10.6 24 Sur 33 Sur 0 952.3 -2.2 79
2020-01-18 04:00:00 10.9 20 Sur 28 Sur 0 953.4 -1.9 78
2020-01-18 03:00:00 10.9 19 Sur 26 Sur 0 954 -1.4 79
2020-01-18 02:00:00 10.7 16 Sur 23 Sur 0 954.5 -1 79
2020-01-18 01:00:00 10.2 17 Sudoeste 22 Sudoeste 0 955.3 -0.4 78
2020-01-18 00:00:00 9.6 12 Sur 16 Sur 0 955.4 -0.4 80
2020-01-17 23:00:00 8.1 7 Sudeste 11 Sudeste 0 955.5 0 84
2020-01-17 22:00:00 8.2 8 Sudeste 9 Sudeste 0 955.7 0.6 84
2020-01-17 21:00:00 9.2 2 Sudeste 5 Sudeste 0 955.8 0.9 79
2020-01-17 20:00:00 9.6 4 Sudeste 5 Sudeste 0 955.5 0.7 77
2020-01-17 19:00:00 10.8 0 Calma 5 Nordeste 0 955.1 0.5 73
2020-01-17 18:00:00 12.2 3 Nordeste 12 Norte 0 954.9 0.3 67
2020-01-17 17:00:00 13.2 6 Norte 16 Norte 0 954.8 -0.4 63
2020-01-17 16:00:00 13 10 Norte 20 Norte 0 954.6 -1.2 65
2020-01-17 15:00:00 13.9 14 Noroeste 24 Noroeste 0 954.6 -1.9 64
2020-01-17 14:00:00 14.2 13 Noroeste 21 Noroeste 0 955.2 -1 57
2020-01-17 13:00:00 13.7 8 Sudoeste 15 Sudoeste 0 955.8 0.4 64
2020-01-17 12:00:00 12.2 8 Oeste 13 Sudoeste 0 956.5 1.7 81
2020-01-17 11:00:00 9.9 10 Sudoeste 18 Sudoeste 0 956.2 2.3 92
2020-01-17 10:00:00 8.7 10 Sudoeste 18 Oeste 0 955.4 2 94
2020-01-17 09:00:00 8.9 14 Oeste 19 Oeste 0 954.8 2.1 94
2020-01-17 08:00:00 8.9 11 Sudoeste 17 Sudoeste 0 953.9 1.4 94
2020-01-17 07:00:00 9.4 13 Sudoeste 22 Sudoeste 0 953.4 0.9 94
2020-01-17 06:00:00 9.1 15 Sudoeste 23 Sudoeste 0 952.7 0.7 93
2020-01-17 05:00:00 9.6 18 Sudoeste 27 Sudoeste 0 952.5 0.5 92
2020-01-17 04:00:00 9.7 18 Sudoeste 35 Sudoeste 0.2 952.5 0.7 91
2020-01-17 03:00:00 9.9 22 Sudoeste 33 Sudoeste 0.2 952 0 89
2020-01-17 02:00:00 10 22 Sudoeste 38 Sudoeste 0 952 0.4 86
2020-01-17 01:00:00 9.9 28 Sudoeste 40 Sudoeste 0 951.8 0.4 82
2020-01-17 00:00:00 9.7 27 Sudoeste 38 Sudoeste 0 952 1 81
2020-01-16 23:00:00 9.4 19 Sudoeste 33 Sur 0 951.6 0.7 74
2020-01-16 22:00:00 9.5 22 Sur 35 Sudoeste 0 951.4 0.8 60
2020-01-16 21:00:00 10.2 27 Sur 37 Sur 0 951 0.8 57
2020-01-16 20:00:00 10 22 Sur 31 Sur 0 950.9 1 64
2020-01-16 19:00:00 9.9 14 Sur 22 Sudoeste 0 950.6 0.8 59
2020-01-16 18:00:00 11.7 14 Sudoeste 31 Sudoeste 0 950.2 0.1 50
2020-01-16 17:00:00 13.5 21 Sudoeste 36 Sudoeste 0 949.9 -0.7 46
2020-01-16 16:00:00 14 20 Sudoeste 34 Sur 0 949.8 -1.3 46
2020-01-16 15:00:00 14.2 24 Sudoeste 35 Sur 0 950.1 -1.8 46
2020-01-16 14:00:00 13.6 21 Sur 35 Sur 0 950.6 -0.9 59
2020-01-16 13:00:00 12.3 24 Sur 34 Sur 0 951.1 -0.2 66
2020-01-16 12:00:00 11.4 21 Sur 32 Sur 0 951.9 1.4 73
2020-01-16 11:00:00 9.6 22 Sur 32 Sur 0 951.5 1.2 81
2020-01-16 10:00:00 9.6 23 Sur 30 Sur 0 951.3 1.1 79
2020-01-16 09:00:00 8.6 19 Sur 28 Sur 0 950.5 0.4 71
2020-01-16 08:00:00 8.1 22 Sur 31 Sur 0 950.3 0.2 89
2020-01-16 07:00:00 8.2 22 Sur 34 Sur 0 950.2 0 90
2020-01-16 06:00:00 8.5 12 Sur 24 Sur 0 950.1 -0.3 90
2020-01-16 05:00:00 8.8 17 Sur 38 Sur 0 950.1 -0.4 89
2020-01-16 04:00:00 9.1 27 Sur 35 Sur 0 950.2 -0.6 88
2020-01-16 03:00:00 9.3 16 Sudoeste 30 Sur 0 950.4 -0.2 89
2020-01-16 02:00:00 9.4 15 Sudoeste 26 Sudoeste 0 950.5 0 93
2020-01-16 01:00:00 10 18 Sudoeste 38 Sudoeste 0 950.8 0.2 94
2020-01-16 00:00:00 10.3 27 Sudoeste 38 Sudoeste 0 950.6 0.2 92
2020-01-15 23:00:00 10.5 29 Sur 38 Sudoeste 0 950.5 0.1 91
2020-01-15 22:00:00 10.5 23 Sur 32 Sur 0 950.6 0.7 91
2020-01-15 21:00:00 10.4 25 Sur 34 Sur 0 950.4 0.7 91
2020-01-15 20:00:00 10.3 19 Sur 42 Sur 0 950.4 1.2 90
2020-01-15 19:00:00 10.2 24 Sur 39 Sudeste 0 949.9 0.8 90
2020-01-15 18:00:00 9.9 19 Sur 36 Sur 0.2 949.7 0.7 91
2020-01-15 17:00:00 10 20 Sur 33 Sur 0.2 949.2 0.2 90
2020-01-15 16:00:00 10 19 Sur 31 Sur 0 949.1 -0.3 90
2020-01-15 15:00:00 10.3 18 Sur 31 Sur 0 949 -0.7 88
2020-01-15 14:00:00 9.9 24 Sur 33 Sur 0 949 0 88
2020-01-15 13:00:00 9.6 23 Sur 33 Sur 0 949.4 1.5 87
2020-01-15 12:00:00 9.2 19 Sur 38 Sur 0 949.7 2.3 87
2020-01-15 11:00:00 8.6 27 Sur 46 Sur 0 949 2.7 89
2020-01-15 10:00:00 7.9 30 Sur 48 Sur 0 947.9 1.7 88
2020-01-15 09:00:00 7.7 29 Sur 58 Sudoeste 0 947.4 1.7 84
2020-01-15 08:00:00 7.5 45 Sur 57 Sur 0 946.3 0.4 82
2020-01-15 07:00:00 6.9 37 Sur 52 Sur 0 946.2 -0.2 82
2020-01-15 06:00:00 7.5 35 Sur 46 Sur 0 945.7 -1.2 80
2020-01-15 05:00:00 7.9 34 Sur 46 Sur 0 945.9 -1.1 76
2020-01-15 04:00:00 7.6 27 Sur 38 Sur 0 946.4 -0.7 79
2020-01-15 03:00:00 7.3 26 Sur 39 Sur 0 946.9 -0.2 84
2020-01-15 02:00:00 7.7 27 Sur 39 Sur 0 947 -0.1 82
2020-01-15 01:00:00 7.6 29 Sur 39 Sur 0 947.1 0.3 84
2020-01-15 00:00:00 7.6 28 Sur 37 Sur 0 947.1 0.3 85
2020-01-14 23:00:00 7.6 28 Sur 43 Sur 0 947.1 0.3 83
2020-01-14 22:00:00 7.5 33 Sur 44 Sur 0 946.8 0.4 82
2020-01-14 21:00:00 7.6 26 Sur 36 Sur 0 946.8 0.7 80
2020-01-14 20:00:00 7.6 25 Sur 39 Sudoeste 0 946.8 0.7 77
2020-01-14 19:00:00 7.8 27 Sur 39 Sudoeste 0 946.4 0.3 77
2020-01-14 18:00:00 8.6 23 Sur 31 Sur 0 946.1 0 75
2020-01-14 17:00:00 9.6 17 Sur 26 Sur 0 946.1 -0.6 71
2020-01-14 16:00:00 9.6 19 Sur 27 Sudoeste 0 946.1 -1.3 70
2020-01-14 15:00:00 10.4 17 Sur 24 Sur 0 946.1 -1.8 68
2020-01-14 14:00:00 11.2 17 Sur 23 Sur 0 946.7 -1 66
2020-01-14 13:00:00 10.8 13 Sur 23 Sudoeste 0 947.4 0.1 66
2020-01-14 12:00:00 9.6 17 Sudoeste 24 Sudoeste 0 947.9 1 73
2020-01-14 11:00:00 9.6 10 Sudeste 13 Sudeste 0 947.7 1 68
2020-01-14 10:00:00 6.2 10 Sur 14 Sur 0 947.3 0.9 81
2020-01-14 09:00:00 3.9 7 Sudoeste 11 Sudoeste 0 946.9 0.5 84
2020-01-14 08:00:00 3.3 6 Sur 11 Sudoeste 0 946.7 0.1 84
2020-01-14 07:00:00 3.6 7 Sudoeste 9 Sudoeste 0 946.4 -0.4 86
2020-01-14 06:00:00 3.7 6 Sudoeste 9 Sudoeste 0 946.4 -0.6 84
2020-01-14 05:00:00 3.8 6 Sudoeste 7 Sudoeste 0 946.6 -0.8 80
2020-01-14 04:00:00 4 5 Sudoeste 6 Sudoeste 0 946.8 -1.2 81
2020-01-14 03:00:00 3.4 4 Sudoeste 6 Sudoeste 0 947 -1.2 82
2020-01-14 02:00:00 3.8 4 Sudoeste 9 Sudoeste 0 947.4 -0.7 83
2020-01-14 01:00:00 4.7 9 Oeste 13 Sudoeste 0 948 0.1 83
2020-01-14 00:00:00 5 9 Sur 13 Sur 0 948.2 0 84
2020-01-13 23:00:00 5.9 10 Sudoeste 17 Sudoeste 0 948.1 -0.1 84
2020-01-13 22:00:00 6.5 13 Sur 19 Sur 0 947.9 -0.3 78
2020-01-13 21:00:00 6.7 14 Sur 21 Sur 0 948.2 0 84
2020-01-13 20:00:00 5.9 7 Sudeste 9 Sudeste 0 948.2 0 73
2020-01-13 19:00:00 7.9 6 Sudeste 7 Sudeste 0 948.2 0 66
2020-01-13 18:00:00 10.3 4 Norte 17 Norte 0 948.2 -0.2 58
2020-01-13 17:00:00 11.6 9 Noroeste 15 Noroeste 0 948.2 -0.9 48
2020-01-13 16:00:00 12.8 6 Sudoeste 15 Sudoeste 0 948.2 -1.9 50
2020-01-13 15:00:00 11.9 8 Oeste 17 Sudoeste 0 948.4 -2.2 54
2020-01-13 14:00:00 11.7 10 Sudoeste 20 Sudoeste 0 949.1 -1.5 54
2020-01-13 13:00:00 10.6 12 Sur 23 Sur 0 950.1 -0.1 60
2020-01-13 12:00:00 9.9 16 Sur 23 Sur 0 950.6 0.8 62
2020-01-13 11:00:00 9 4 Sudeste 9 Sur 0 950.6 0.8 66
2020-01-13 10:00:00 6.2 6 Sudeste 10 Este 0 950.2 0.8 73
2020-01-13 09:00:00 3.9 6 Sudeste 10 Sudeste 0 949.8 0.2 77
2020-01-13 08:00:00 4.7 4 Sudeste 7 Norte 0 949.8 -0.2 73
2020-01-13 07:00:00 4.5 5 Sudeste 10 Sudeste 0 949.4 -1 72
2020-01-13 06:00:00 4.6 4 Sudeste 7 Sudeste 0 949.6 -1.1 68
2020-01-13 05:00:00 5.3 3 Sudeste 10 Este 0 950 -1.1 67
2020-01-13 04:00:00 5.3 4 Sudeste 8 Sudeste 0 950.4 -1.6 69
2020-01-13 03:00:00 3.9 2 Sur 10 Sudeste 0 950.7 -1.8 76
2020-01-13 02:00:00 3.6 10 Sudeste 13 Sudeste 0 951.1 -1.4 78
2020-01-13 01:00:00 3.7 12 Sudeste 13 Sudeste 0 952 -0.6 78
2020-01-13 00:00:00 3.4 9 Sudeste 10 Sudeste 0 952.5 -0.2 80
2020-01-12 23:00:00 4.2 7 Sudeste 9 Sudeste 0 952.5 -0.3 79
2020-01-12 22:00:00 4.2 6 Sudeste 8 Sudeste 0 952.6 0.1 69
2020-01-12 21:00:00 5.5 3 Este 5 Este 0 952.7 0.5 66
2020-01-12 20:00:00 7 2 Norte 9 Norte 0 952.8 0.5 66
2020-01-12 19:00:00 8.3 3 Norte 10 Noroeste 0 952.5 0.2 66
2020-01-12 18:00:00 10.7 5 Norte 12 Norte 0 952.2 -0.1 45
2020-01-12 17:00:00 11.8 5 Norte 15 Norte 0 952.3 -0.7 43
2020-01-12 16:00:00 12.3 9 Norte 18 Norte 0 952.3 -1.6 43
2020-01-12 15:00:00 12.7 6 Norte 14 Norte 0 952.3 -2.6 44
2020-01-12 14:00:00 12.8 4 Nordeste 10 Noroeste 0 953 -1.8 44
2020-01-12 13:00:00 12 3 Noroeste 6 Noroeste 0 953.9 -0.2 46
2020-01-12 12:00:00 10.6 4 Este 8 Este 0 954.9 1.1 54
2020-01-12 11:00:00 9.7 4 Este 6 Este 0 954.8 1 65
2020-01-12 10:00:00 7.2 5 Este 7 Sudeste 0 954.1 0.6 66
2020-01-12 09:00:00 3.4 6 Sudeste 7 Sudeste 0 953.8 0.4 75
2020-01-12 08:00:00 3.5 4 Este 7 Este 0 953.8 0.2 71
2020-01-12 07:00:00 3.7 6 Este 9 Sudeste 0 953.5 -0.4 73
2020-01-12 06:00:00 3.8 8 Este 9 Este 0 953.4 -0.3 74
2020-01-12 05:00:00 3.5 8 Este 9 Este 0 953.6 -0.1 74
2020-01-12 04:00:00 3.6 8 Este 9 Este 0 953.9 -0.1 78
2020-01-12 03:00:00 4.4 6 Sudeste 12 Sudeste 0 953.7 -0.3 75
2020-01-12 02:00:00 3.7 9 Sudeste 11 Sudeste 0 953.7 -0.2 78
2020-01-12 01:00:00 3.9 8 Este 10 Sudeste 0 954 0.1 77
2020-01-12 00:00:00 3.7 6 Este 9 Sudeste 0 954 0.1 76
2020-01-11 23:00:00 4.3 4 Sudeste 9 Sudeste 0 953.9 0.2 75
2020-01-11 22:00:00 4.2 9 Sudeste 10 Sudeste 0 953.9 0.7 77
2020-01-11 21:00:00 4.7 7 Sudeste 9 Sudeste 0 953.9 1.4 74
2020-01-11 20:00:00 6 5 Sudeste 8 Nordeste 0 953.7 1.3 67
2020-01-11 19:00:00 7.5 0 Calma 8 Este 0 953.2 0.9 62
2020-01-11 18:00:00 10 6 Sudeste 13 Este 0 952.5 0 55
2020-01-11 17:00:00 11.3 10 Este 18 Este 0 952.4 -0.6 47
2020-01-11 16:00:00 11.7 9 Nordeste 15 Este 0 952.3 -1.6 48
2020-01-11 15:00:00 11.2 9 Nordeste 20 Nordeste 0 952.5 -1.8 49
2020-01-11 14:00:00 10.3 9 Este 17 Este 0 953 -1 57
2020-01-11 13:00:00 8.7 4 Nordeste 15 Este 0 953.9 0.5 60
2020-01-11 12:00:00 7.2 9 Este 17 Este 0 954.3 1.3 68
2020-01-11 11:00:00 5.1 13 Este 25 Este 0 954 1.2 72
2020-01-11 10:00:00 4.3 14 Este 18 Este 0 953.4 1 73
2020-01-11 09:00:00 2.6 12 Este 19 Este 0 953 0.6 77
2020-01-11 08:00:00 2.4 12 Este 17 Este 0 952.8 0.3 76
2020-01-11 07:00:00 3 12 Este 16 Este 0 952.4 -0.2 73
2020-01-11 06:00:00 2.8 10 Este 13 Este 0 952.4 -0.4 74
2020-01-11 05:00:00 3.4 8 Este 11 Este 0 952.5 0.1 70
2020-01-11 04:00:00 3.8 8 Este 12 Este 0 952.6 0 69
2020-01-11 03:00:00 3.9 7 Este 12 Este 0 952.8 0.2 68
2020-01-11 02:00:00 4.2 8 Este 15 Este 0 952.4 0.1 69
2020-01-11 01:00:00 4.4 5 Nordeste 8 Nordeste 0 952.6 0.5 71
2020-01-11 00:00:00 3.9 4 Sudeste 9 Este 0 952.6 0.8 75
2020-01-10 23:00:00 3.9 6 Este 12 Este 0 952.3 0.8 82
2020-01-10 22:00:00 5.1 9 Nordeste 22 Nordeste 0 952.1 1.3 82
2020-01-10 21:00:00 6.4 12 Nordeste 22 Norte 0 951.8 1.7 78
2020-01-10 20:00:00 6.8 9 Nordeste 18 Nordeste 0 951.5 1.6 74
2020-01-10 19:00:00 7.8 9 Nordeste 27 Nordeste 0 950.8 1.1 71
2020-01-10 18:00:00 9.4 11 Nordeste 25 Nordeste 0 950.1 0.8 68
2020-01-10 17:00:00 11.1 12 Nordeste 30 Nordeste 0 949.9 -0.4 57
2020-01-10 16:00:00 10.9 16 Nordeste 31 Este 0 949.7 -1 60
2020-01-10 15:00:00 10.3 13 Nordeste 26 Nordeste 0 949.3 -1.8 66
2020-01-10 14:00:00 9.1 13 Este 23 Nordeste 0 950.3 -0.7 71
2020-01-10 13:00:00 7.3 13 Nordeste 23 Nordeste 0 950.7 -0.1 69
2020-01-10 12:00:00 6.1 8 Nordeste 20 Norte 0 951.1 1.1 75
2020-01-10 11:00:00 4.9 10 Norte 25 Norte 0 951 1.2 80
2020-01-10 10:00:00 3.9 6 Norte 13 Noroeste 0 950.8 1.2 88
2020-01-10 09:00:00 2.5 6 Noroeste 14 Noroeste 0 950 0.5 93
2020-01-10 08:00:00 2.8 10 Noroeste 16 Noroeste 0 949.8 0.1 93
2020-01-10 07:00:00 3.5 8 Noroeste 15 Noroeste 0 949.6 -0.3 93
2020-01-10 06:00:00 4.3 6 Noroeste 15 Norte 0 949.5 -0.6 92
2020-01-10 05:00:00 5.2 8 Noroeste 18 Noroeste 0 949.7 -0.3 91
2020-01-10 04:00:00 6.6 14 Noroeste 23 Noroeste 0 949.9 -0.6 88
2020-01-10 03:00:00 8.1 14 Noroeste 25 Noroeste 0 950.1 -0.9 91
2020-01-10 02:00:00 8.7 15 Noroeste 24 Noroeste 0 950 -1.1 92
2020-01-10 01:00:00 9.1 10 Noroeste 23 Noroeste 0 950.5 -0.5 91
2020-01-10 00:00:00 9.7 16 Noroeste 25 Noroeste 0 951 0 90
2020-01-09 23:00:00 9.7 14 Noroeste 21 Noroeste 0 951.1 0.4 85
2020-01-09 22:00:00 9 18 Noroeste 27 Noroeste 0 951 0.7 83
2020-01-09 21:00:00 7.6 6 Oeste 10 Noroeste 0 951 0.5 79
2020-01-09 20:00:00 8.6 6 Oeste 13 Noroeste 0 950.7 1 73
2020-01-09 19:00:00 9.4 9 Noroeste 13 Noroeste 0 950.3 0.5 70
2020-01-09 18:00:00 11.1 9 Noroeste 16 Noroeste 0 950.5 0.4 66
2020-01-09 17:00:00 12.6 7 Noroeste 16 Noroeste 0 949.7 -0.7 54
2020-01-09 16:00:00 12.8 8 Noroeste 19 Noroeste 0 949.8 -1.3 55
2020-01-09 15:00:00 13 12 Noroeste 21 Noroeste 0 950.1 -1.4 56
2020-01-09 14:00:00 13.1 12 Oeste 19 Oeste 0 950.4 -1.1 51
2020-01-09 13:00:00 11.7 12 Oeste 19 Oeste 0 951.1 0.1 60
2020-01-09 12:00:00 11.5 11 Sudoeste 16 Sudoeste 0 951.5 1.2 59
2020-01-09 11:00:00 10.1 9 Sudoeste 20 Sudoeste 0 951.5 1.3 65
2020-01-09 10:00:00 8.4 15 Sudoeste 21 Sudoeste 0 951 1.2 76
2020-01-09 09:00:00 4.7 3 Sur 8 Sur 0 950.3 0.7 75
2020-01-09 08:00:00 6.2 4 Nordeste 22 Sudoeste 0 950.2 0.2 67
2020-01-09 07:00:00 8.7 17 Sudoeste 31 Sudoeste 0 949.8 -0.7 68
2020-01-09 06:00:00 8 19 Sudoeste 26 Sudoeste 0 949.6 -1.3 68
2020-01-09 05:00:00 6.1 9 Sudoeste 13 Sudoeste 0 950 -1.1 53
2020-01-09 04:00:00 6.7 7 Oeste 8 Oeste 0 950.5 -0.9 55
2020-01-09 03:00:00 5.8 5 Este 6 Este 0 950.9 -0.8 66
2020-01-09 02:00:00 6.3 4 Sudoeste 5 Sudoeste 0 951.1 -0.3 72
2020-01-09 01:00:00 6.9 4 Oeste 7 Oeste 0 951.4 0 60
2020-01-09 00:00:00 8.1 3 Noroeste 11 Noroeste 0 951.7 0.2 42
2020-01-08 23:00:00 8.9 6 Oeste 10 Noroeste 0 951.4 0 39
2020-01-08 22:00:00 8.4 4 Oeste 9 Noroeste 0 951.4 0.1 71
2020-01-08 21:00:00 9 0 Calma 8 Noroeste 0 951.5 0.3 71
2020-01-08 20:00:00 10.3 2 Oeste 9 Noroeste 0 951.4 0.4 61
2020-01-08 19:00:00 12.4 0 Calma 5 Sur 0 951.3 0.3 52
2020-01-08 18:00:00 16.2 2 Sudeste 5 Norte 0 951.2 0.1 43
2020-01-08 17:00:00 16.4 5 Norte 7 Noroeste 0 951 -0.7 37
2020-01-08 16:00:00 17.4 4 Noroeste 8 Noroeste 0 951 -1.3 30
2020-01-08 15:00:00 17.3 3 Noroeste 10 Nordeste 0 951.1 -2 30
2020-01-08 14:00:00 16.2 6 Norte 10 Nordeste 0 951.7 -1.6 32
2020-01-08 13:00:00 16.2 4 Norte 8 Norte 0 952.3 -0.3 25
2020-01-08 12:00:00 14 4 Este 10 Este 0 953.1 1 43
2020-01-08 11:00:00 12.5 6 Este 9 Este 0 953.3 1.3 54
2020-01-08 10:00:00 9.6 6 Este 10 Este 0 952.6 0.7 54
2020-01-08 09:00:00 6.9 9 Este 10 Este 0 952.1 0 67
2020-01-08 08:00:00 6.7 8 Este 9 Este 0 952 -0.4 66
2020-01-08 07:00:00 5.9 7 Este 9 Este 0 951.9 -0.8 67
2020-01-08 06:00:00 4.9 8 Este 9 Este 0 952.1 -0.6 72
2020-01-08 05:00:00 5.9 5 Este 9 Este 0 952.4 -0.4 66
2020-01-08 04:00:00 6.5 6 Este 8 Este 0 952.7 -0.6 73
2020-01-08 03:00:00 7.7 3 Este 8 Este 0 952.7 -1 67
2020-01-08 02:00:00 6.4 7 Este 9 Sudeste 0 952.8 -1.1 79
2020-01-08 01:00:00 7.3 4 Sudeste 7 Sudeste 0 953.3 -0.8 78
2020-01-08 00:00:00 8.1 2 Nordeste 6 Sudeste 0 953.7 -0.2 78
2020-01-07 23:00:00 7.4 3 Sudeste 5 Este 0 953.9 0.1 74
2020-01-07 22:00:00 8.2 2 Sudeste 6 Sudeste 0 954.1 0.4 75
2020-01-07 21:00:00 9.1 3 Nordeste 6 Norte 0 953.9 0.6 69
2020-01-07 20:00:00 10 0 Calma 4 Sudeste 0 953.8 0.4 68
2020-01-07 19:00:00 11.3 2 Nordeste 5 Nordeste 0 953.7 0.2 66
2020-01-07 18:00:00 14 4 Sudeste 8 Nordeste 0 953.3 -0.2 57
2020-01-07 17:00:00 14.7 5 Norte 12 Norte 0 953.4 -0.4 53
2020-01-07 16:00:00 15.1 7 Nordeste 15 Este 0 953.5 -1 48
2020-01-07 15:00:00 14.8 7 Nordeste 14 Este 0 953.5 -1.5 53
2020-01-07 14:00:00 14.3 6 Nordeste 13 Nordeste 0 953.8 -1.1 51
2020-01-07 13:00:00 13.2 10 Este 18 Este 0 954.5 0.3 56
2020-01-07 12:00:00 11 10 Este 14 Este 0 955 1 66
2020-01-07 11:00:00 10.2 9 Este 12 Este 0 954.9 1.1 71
2020-01-07 10:00:00 8.9 6 Sudeste 13 Este 0 954.2 0.7 72
2020-01-07 09:00:00 6 9 Este 16 Sudeste 0 954 0.5 75
2020-01-07 08:00:00 6.5 11 Este 19 Este 0 953.8 0.2 74
2020-01-07 07:00:00 7 15 Este 19 Sudeste 0 953.5 0.1 73
2020-01-07 06:00:00 6.9 11 Este 19 Sudeste 0 953.5 0.3 71
2020-01-07 05:00:00 5.6 14 Sudeste 16 Sudeste 0 953.6 0.3 75
2020-01-07 04:00:00 6.8 13 Este 15 Este 0 953.4 -0.2 65
2020-01-07 03:00:00 7.3 10 Sudeste 14 Sudeste 0 953.2 -0.6 70
2020-01-07 02:00:00 6.8 9 Sudeste 14 Sudeste 0 953.3 -0.6 73
2020-01-07 01:00:00 6.3 10 Sudeste 15 Sudeste 0 953.6 0.1 77
2020-01-07 00:00:00 6.3 5 Este 8 Este 0 953.8 0.7 83
2020-01-06 23:00:00 6.4 5 Este 8 Sudeste 0 953.9 1.4 84
2020-01-06 22:00:00 7.2 3 Sur 5 Sudeste 0 953.5 1.2 82
2020-01-06 21:00:00 7.9 2 Este 6 Norte 0 953.1 1.4 78
2020-01-06 20:00:00 8.4 4 Sudeste 8 Norte 0 952.5 1.2 72
2020-01-06 19:00:00 10.1 3 Este 7 Norte 0 952.3 1.2 68
2020-01-06 18:00:00 12.6 3 Este 8 Nordeste 0 951.7 0.6 63
2020-01-06 17:00:00 13.6 5 Nordeste 9 Nordeste 0 951.3 -0.3 55
2020-01-06 16:00:00 14.2 4 Nordeste 13 Nordeste 0 951.1 -1.4 54
2020-01-06 15:00:00 14.1 3 Norte 9 Este 0 951.1 -2.2 53
2020-01-06 14:00:00 13.9 4 Sudeste 8 Sudeste 0 951.6 -1.6 58
2020-01-06 13:00:00 12.4 3 Nordeste 11 Noroeste 0 952.5 0 60
2020-01-06 12:00:00 11.1 6 Noroeste 9 Norte 0 953.3 1.6 69
2020-01-06 11:00:00 9.7 5 Oeste 9 Oeste 0 953.2 2 75
2020-01-06 10:00:00 7.1 4 Nordeste 8 Este 0 952.5 1.6 80